createdAt,value
2017-09-03T00:01:22.168Z,81.53
2017-09-03T00:03:49.035Z,80.26
2017-09-03T00:06:16.456Z,82.35
2017-09-03T00:08:43.252Z,81.37
2017-09-03T00:11:10.656Z,83.97
2017-09-03T00:13:37.490Z,85.96
2017-09-03T00:16:04.296Z,86.78
2017-09-03T00:18:31.118Z,86.61
2017-09-03T00:20:58.051Z,88.09
2017-09-03T00:23:24.940Z,88.02
2017-09-03T00:25:51.814Z,88.55
2017-09-03T00:28:18.652Z,88.25
2017-09-03T00:30:45.463Z,88.37
2017-09-03T00:33:12.322Z,88.81
2017-09-03T00:35:39.169Z,85.02
2017-09-03T00:38:05.961Z,84.10
2017-09-03T00:40:32.818Z,84.47
2017-09-03T00:42:59.678Z,84.08
2017-09-03T00:45:26.520Z,82.45
2017-09-03T00:47:53.391Z,80.19
2017-09-03T00:50:20.278Z,79.76
2017-09-03T00:52:47.142Z,83.35
2017-09-03T00:55:14.171Z,85.59
2017-09-03T00:57:42.243Z,87.53
2017-09-03T01:00:13.814Z,88.94
2017-09-03T01:02:45.481Z,88.71
2017-09-03T01:05:17.301Z,85.12
2017-09-03T01:20:44.457Z,85.02
2017-09-03T01:23:11.348Z,84.12
2017-09-03T01:25:38.174Z,83.43
2017-09-03T01:28:05.023Z,86.59
2017-09-03T01:30:31.841Z,87.63
2017-09-03T01:32:58.678Z,86.94
2017-09-03T01:35:25.487Z,83.78
2017-09-03T01:37:52.356Z,81.10
2017-09-03T01:40:19.166Z,79.70
2017-09-03T01:42:45.997Z,79.49
2017-09-03T01:45:12.827Z,79.29
2017-09-03T01:47:39.667Z,79.24
2017-09-03T01:50:06.507Z,79.33
2017-09-03T01:52:33.383Z,80.60
2017-09-03T01:55:00.230Z,83.18
2017-09-03T01:57:27.061Z,84.92
2017-09-03T01:59:53.881Z,85.92
2017-09-03T02:02:20.705Z,86.66
2017-09-03T02:04:47.559Z,86.17
2017-09-03T02:07:14.412Z,86.05
2017-09-03T02:09:41.254Z,86.86
2017-09-03T02:12:08.135Z,85.90
2017-09-03T02:14:34.987Z,85.64
2017-09-03T02:17:01.847Z,82.55
2017-09-03T02:19:28.721Z,80.27
2017-09-03T02:21:55.552Z,80.25
2017-09-03T02:24:22.377Z,84.07
2017-09-03T02:26:49.230Z,86.60
2017-09-03T02:29:16.069Z,87.83
2017-09-03T02:31:42.939Z,88.64
2017-09-03T02:34:09.777Z,87.72
2017-09-03T02:36:36.604Z,87.79
2017-09-03T02:39:03.550Z,87.19
2017-09-03T02:41:30.352Z,86.48
2017-09-03T02:43:57.231Z,86.71
2017-09-03T02:46:24.098Z,86.91
2017-09-03T02:48:50.938Z,87.46
2017-09-03T02:51:17.778Z,87.08
2017-09-03T02:53:44.682Z,84.90
2017-09-03T02:56:11.493Z,87.13
2017-09-03T02:58:38.347Z,87.06
2017-09-03T03:01:05.163Z,86.63
2017-09-03T03:03:31.988Z,87.51
2017-09-03T03:05:58.804Z,88.24
2017-09-03T03:08:26.345Z,88.02
2017-09-03T03:10:54.283Z,88.26
2017-09-03T03:13:21.146Z,88.91
2017-09-03T03:15:47.986Z,89.18
2017-09-03T03:18:14.816Z,88.94
2017-09-03T03:20:41.620Z,89.49
2017-09-03T03:23:08.468Z,89.21
2017-09-03T03:25:35.316Z,89.37
2017-09-03T03:28:02.152Z,89.14
2017-09-03T03:30:28.999Z,89.18
2017-09-03T03:32:55.850Z,88.10
2017-09-03T03:35:22.689Z,85.93
2017-09-03T03:37:49.523Z,84.64
2017-09-03T03:40:16.440Z,88.26
2017-09-03T03:42:43.313Z,86.67
2017-09-03T03:45:10.139Z,85.05
2017-09-03T03:47:36.960Z,87.21
2017-09-03T03:50:03.774Z,88.03
2017-09-03T03:52:30.587Z,88.09
2017-09-03T03:54:57.469Z,88.59
2017-09-03T03:57:24.342Z,88.60
2017-09-03T03:59:51.212Z,88.88
2017-09-03T04:02:18.023Z,86.46
2017-09-03T04:04:44.853Z,88.37
2017-09-03T04:07:11.705Z,89.56
2017-09-03T04:09:38.548Z,89.77
2017-09-03T04:12:05.378Z,89.88
2017-09-03T04:14:32.232Z,89.97
2017-09-03T04:16:59.035Z,88.59
2017-09-03T04:19:25.847Z,87.82
2017-09-03T04:21:52.699Z,88.55
2017-09-03T04:24:19.515Z,88.40
2017-09-03T04:26:46.363Z,88.35
2017-09-03T04:29:13.202Z,88.61
2017-09-03T04:31:40.011Z,88.77
2017-09-03T04:34:06.871Z,88.98
2017-09-03T04:36:33.718Z,89.81
2017-09-03T04:39:00.606Z,89.93
2017-09-03T04:41:27.674Z,90.78
2017-09-03T04:43:54.525Z,90.80
2017-09-03T04:46:21.367Z,89.71
2017-09-03T04:48:48.231Z,88.99
2017-09-03T04:51:15.074Z,90.15
2017-09-03T04:53:41.942Z,90.11
2017-09-03T04:56:08.768Z,89.73
2017-09-03T04:58:35.638Z,85.53
2017-09-03T05:01:02.453Z,86.15
2017-09-03T05:03:29.251Z,88.37
2017-09-03T05:05:56.085Z,89.91
2017-09-03T05:08:22.971Z,90.24
2017-09-03T05:10:49.935Z,90.73
2017-09-03T05:13:16.779Z,89.55
2017-09-03T05:15:43.635Z,88.36
2017-09-03T05:18:10.464Z,84.43
2017-09-03T05:20:37.302Z,82.22
2017-09-03T05:23:04.185Z,82.28
2017-09-03T05:25:31.021Z,84.28
2017-09-03T05:27:57.844Z,83.76
2017-09-03T05:30:24.696Z,86.94
2017-09-03T05:32:51.526Z,88.92
2017-09-03T05:35:18.355Z,89.56
2017-09-03T05:37:45.231Z,90.12
2017-09-03T05:40:12.043Z,90.74
2017-09-03T05:42:38.922Z,91.21
2017-09-03T05:45:05.761Z,91.19
2017-09-03T05:47:32.595Z,90.94
2017-09-03T05:49:59.438Z,91.27
2017-09-03T05:52:26.275Z,87.81
2017-09-03T05:54:53.119Z,83.68
2017-09-03T05:57:20.006Z,82.65
2017-09-03T05:59:46.832Z,83.80
2017-09-03T06:02:13.719Z,86.83
2017-09-03T06:04:40.578Z,88.93
2017-09-03T06:07:07.407Z,90.21
2017-09-03T06:09:34.251Z,88.23
2017-09-03T06:12:01.077Z,85.47
2017-09-03T06:14:27.936Z,85.00
2017-09-03T06:16:54.802Z,88.96
2017-09-03T06:19:21.645Z,84.81
2017-09-03T06:21:48.460Z,84.83
2017-09-03T06:24:15.279Z,85.76
2017-09-03T06:26:42.128Z,87.99
2017-09-03T06:29:08.976Z,85.68
2017-09-03T06:31:35.848Z,85.36
2017-09-03T06:34:02.667Z,85.28
2017-09-03T06:36:29.491Z,83.83
2017-09-03T06:38:56.330Z,83.93
2017-09-03T06:41:23.171Z,83.52
2017-09-03T06:43:50.004Z,83.85
2017-09-03T06:46:16.824Z,85.49
2017-09-03T06:48:43.628Z,83.39
2017-09-03T06:51:10.465Z,87.78
2017-09-03T06:53:37.351Z,84.90
2017-09-03T06:56:04.179Z,88.45
2017-09-03T06:58:31.018Z,89.40
2017-09-03T07:00:57.840Z,90.85
2017-09-03T07:03:24.684Z,87.90
2017-09-03T07:05:51.545Z,90.66
2017-09-03T07:08:18.400Z,90.10
2017-09-03T07:10:45.240Z,87.71
2017-09-03T07:13:12.120Z,90.68
2017-09-03T07:15:38.951Z,87.65
2017-09-03T07:18:05.795Z,87.25
2017-09-03T07:20:32.641Z,85.63
2017-09-03T07:22:59.472Z,85.45
2017-09-03T07:25:26.317Z,84.83
2017-09-03T07:27:53.186Z,84.52
2017-09-03T07:30:20.036Z,84.64
2017-09-03T07:32:46.930Z,87.74
2017-09-03T07:35:13.734Z,88.56
2017-09-03T07:37:40.555Z,89.15
2017-09-03T07:40:07.408Z,90.96
2017-09-03T07:42:34.251Z,90.88
2017-09-03T07:45:01.154Z,88.29
2017-09-03T07:47:27.998Z,87.96
2017-09-03T07:49:54.826Z,87.75
2017-09-03T07:52:21.670Z,88.35
2017-09-03T07:54:48.555Z,83.89
2017-09-03T07:57:15.384Z,86.01
2017-09-03T07:59:42.258Z,86.05
2017-09-03T08:02:09.080Z,85.22
2017-09-03T08:04:35.937Z,85.43
2017-09-03T08:07:02.794Z,85.74
2017-09-03T08:09:29.662Z,88.19
2017-09-03T08:11:56.545Z,84.73
2017-09-03T08:14:23.397Z,87.02
2017-09-03T08:16:50.244Z,84.34
2017-09-03T08:19:17.081Z,83.52
2017-09-03T08:21:43.927Z,82.32
2017-09-03T08:24:10.753Z,82.54
2017-09-03T08:26:37.593Z,81.52
2017-09-03T08:29:04.450Z,79.12
2017-09-03T08:31:31.276Z,76.60
2017-09-03T08:33:58.104Z,77.64
2017-09-03T08:36:24.977Z,77.58
2017-09-03T08:38:51.816Z,78.19
2017-09-03T08:41:18.673Z,77.41
2017-09-03T08:43:45.522Z,73.93
2017-09-03T08:46:12.380Z,74.72
2017-09-03T08:48:39.251Z,72.59
2017-09-03T08:51:06.080Z,76.82
2017-09-03T08:53:32.920Z,74.01
2017-09-03T08:55:59.774Z,75.46
2017-09-03T08:58:26.609Z,71.41
2017-09-03T09:00:53.455Z,71.74
2017-09-03T09:03:20.284Z,73.23
2017-09-03T09:05:47.120Z,72.32
2017-09-03T09:08:13.962Z,70.36
2017-09-03T09:10:40.817Z,69.55
2017-09-03T09:13:07.651Z,69.61
2017-09-03T09:15:34.516Z,73.67
2017-09-03T09:18:01.320Z,71.37
2017-09-03T09:20:28.202Z,72.97
2017-09-03T09:22:55.052Z,72.75
2017-09-03T09:25:21.918Z,69.11
2017-09-03T09:27:48.835Z,68.24
2017-09-03T09:30:15.696Z,67.48
2017-09-03T09:32:42.527Z,67.22
2017-09-03T09:35:09.349Z,67.78
2017-09-03T09:37:36.348Z,68.67
2017-09-03T09:40:03.177Z,70.04
2017-09-03T09:42:30.064Z,67.69
2017-09-03T09:44:56.933Z,68.71
2017-09-03T09:47:23.827Z,66.52
2017-09-03T09:49:50.718Z,66.65
2017-09-03T09:52:17.614Z,67.24
2017-09-03T09:54:44.519Z,66.58
2017-09-03T09:57:11.413Z,72.46
2017-09-03T09:59:38.284Z,70.41
2017-09-03T10:02:05.123Z,70.23
2017-09-03T10:04:31.959Z,68.13
2017-09-03T10:06:58.780Z,68.43
2017-09-03T10:09:25.632Z,67.85
2017-09-03T10:11:52.476Z,66.54
2017-09-03T10:14:19.310Z,65.01
2017-09-03T10:16:46.127Z,64.62
2017-09-03T10:19:12.980Z,65.31
2017-09-03T10:21:39.819Z,64.66
2017-09-03T10:24:06.665Z,63.32
2017-09-03T10:26:33.498Z,62.77
2017-09-03T10:29:00.353Z,62.82
2017-09-03T10:31:27.242Z,59.25
2017-09-03T10:33:54.091Z,58.83
2017-09-03T10:36:20.935Z,59.51
2017-09-03T10:38:47.771Z,58.00
2017-09-03T10:41:14.583Z,58.79
2017-09-03T10:43:41.426Z,59.20
2017-09-03T10:46:08.287Z,58.29
2017-09-03T10:48:35.142Z,59.69
2017-09-03T10:51:01.963Z,60.43
2017-09-03T10:53:28.799Z,57.75
2017-09-03T10:55:55.669Z,60.37
2017-09-03T10:58:22.517Z,58.70
2017-09-03T11:00:49.394Z,58.54
2017-09-03T11:03:16.238Z,57.86
2017-09-03T11:05:43.097Z,58.37
2017-09-03T11:08:09.948Z,57.22
2017-09-03T11:10:36.818Z,57.49
2017-09-03T11:13:03.681Z,58.07
2017-09-03T11:15:30.514Z,57.26
2017-09-03T11:17:57.351Z,57.31
2017-09-03T11:20:24.178Z,60.33
2017-09-03T11:22:50.991Z,59.07
2017-09-03T11:25:17.801Z,58.35
2017-09-03T11:27:44.625Z,57.17
2017-09-03T11:30:11.542Z,55.99
2017-09-03T11:32:38.375Z,54.91
2017-09-03T11:35:05.216Z,55.23
2017-09-03T11:37:32.086Z,54.99
2017-09-03T11:39:59.029Z,54.79
2017-09-03T11:42:25.914Z,55.00
2017-09-03T11:44:52.724Z,58.63
2017-09-03T11:47:19.584Z,57.66
2017-09-03T11:49:46.442Z,57.24
2017-09-03T11:52:13.311Z,56.36
2017-09-03T11:54:40.155Z,53.22
2017-09-03T11:57:06.999Z,50.93
2017-09-03T11:59:33.875Z,53.84
2017-09-03T12:02:00.753Z,53.25
2017-09-03T12:04:27.583Z,52.23
2017-09-03T12:06:54.435Z,50.22
2017-09-03T12:09:21.255Z,50.57
2017-09-03T12:11:48.108Z,49.20
2017-09-03T12:14:14.972Z,49.57
2017-09-03T12:16:41.789Z,48.47
2017-09-03T12:19:08.619Z,48.66
2017-09-03T12:21:35.483Z,47.50
2017-09-03T12:24:02.314Z,47.58
2017-09-03T12:26:29.242Z,46.87
2017-09-03T12:28:56.060Z,46.93
2017-09-03T12:31:22.902Z,46.46
2017-09-03T12:33:49.746Z,45.92
2017-09-03T12:36:16.588Z,46.01
2017-09-03T12:38:43.427Z,46.85
2017-09-03T12:41:10.280Z,46.31
2017-09-03T12:43:37.140Z,47.10
2017-09-03T12:46:04.046Z,47.46
2017-09-03T12:48:30.943Z,47.35
2017-09-03T12:50:58.168Z,49.23
2017-09-03T12:53:24.987Z,47.69
2017-09-03T12:55:51.818Z,47.56
2017-09-03T12:58:18.625Z,48.61
2017-09-03T13:00:45.424Z,48.10
2017-09-03T13:03:12.278Z,50.33
2017-09-03T13:05:39.149Z,51.60
2017-09-03T13:08:05.993Z,50.96
2017-09-03T13:10:32.858Z,51.66
2017-09-03T13:12:59.724Z,52.37
2017-09-03T13:15:26.600Z,51.86
2017-09-03T13:17:53.439Z,52.62
2017-09-03T13:20:20.317Z,51.47
2017-09-03T13:22:47.136Z,51.51
2017-09-03T13:25:13.980Z,53.09
2017-09-03T13:27:40.848Z,51.39
2017-09-03T13:30:07.687Z,53.89
2017-09-03T13:32:34.535Z,55.65
2017-09-03T13:35:01.397Z,55.27
2017-09-03T13:37:28.266Z,52.63
2017-09-03T13:39:55.158Z,52.06
2017-09-03T13:42:22.013Z,52.71
2017-09-03T13:44:48.874Z,52.55
2017-09-03T13:47:15.713Z,51.78
2017-09-03T13:49:42.581Z,52.37
2017-09-03T13:52:09.410Z,52.04
2017-09-03T13:54:36.281Z,50.41
2017-09-03T13:57:03.114Z,50.23
2017-09-03T13:59:29.980Z,51.33
2017-09-03T14:01:56.829Z,52.46
2017-09-03T14:04:23.731Z,50.73
2017-09-03T14:06:50.572Z,49.78
2017-09-03T14:09:17.421Z,49.88
2017-09-03T14:11:44.281Z,48.81
2017-09-03T14:14:11.135Z,49.24
2017-09-03T14:16:37.995Z,48.89
2017-09-03T14:19:04.852Z,47.86
2017-09-03T14:21:31.722Z,48.30
2017-09-03T14:23:58.595Z,47.56
2017-09-03T14:26:25.475Z,47.99
2017-09-03T14:28:52.348Z,48.89
2017-09-03T14:31:19.194Z,49.36
2017-09-03T14:33:46.089Z,46.91
2017-09-03T14:36:12.946Z,44.66
2017-09-03T14:38:39.782Z,45.63
2017-09-03T14:41:06.614Z,44.07
2017-09-03T14:43:33.482Z,44.08
2017-09-03T14:46:00.371Z,44.23
2017-09-03T14:48:27.219Z,42.61
2017-09-03T14:50:54.050Z,40.68
2017-09-03T14:53:20.901Z,43.69
2017-09-03T14:55:47.780Z,40.32
2017-09-03T14:58:14.624Z,40.87
2017-09-03T15:00:41.511Z,43.04
2017-09-03T15:03:08.479Z,42.03
2017-09-03T15:05:35.358Z,40.71
2017-09-03T15:08:02.218Z,39.84
2017-09-03T15:10:29.072Z,40.62
2017-09-03T15:12:55.957Z,41.69
2017-09-03T15:15:22.827Z,40.85
2017-09-03T15:17:49.686Z,39.55
2017-09-03T15:20:16.564Z,39.63
2017-09-03T15:22:43.502Z,40.28
2017-09-03T15:25:10.398Z,39.93
2017-09-03T15:27:37.249Z,38.69
2017-09-03T15:30:04.105Z,36.25
2017-09-03T15:32:30.962Z,39.06
2017-09-03T15:35:00.608Z,38.39
2017-09-03T15:37:27.627Z,36.90
2017-09-03T15:39:54.575Z,36.69
2017-09-03T15:42:21.458Z,38.15
2017-09-03T15:44:48.328Z,37.06
2017-09-03T15:47:15.263Z,37.91
2017-09-03T15:49:42.167Z,37.05
2017-09-03T15:52:09.031Z,37.32
2017-09-03T15:54:35.994Z,37.71
2017-09-03T15:57:02.926Z,37.62
2017-09-03T15:59:29.817Z,37.10
2017-09-03T16:01:56.649Z,37.91
2017-09-03T16:04:23.485Z,36.67
2017-09-03T16:06:50.325Z,38.09
2017-09-03T16:09:17.208Z,38.34
2017-09-03T16:11:44.064Z,38.13
2017-09-03T16:14:10.924Z,38.84
2017-09-03T16:16:37.755Z,42.54
2017-09-03T16:19:04.585Z,42.71
2017-09-03T16:21:31.435Z,43.09
2017-09-03T16:23:58.311Z,43.29
2017-09-03T16:26:25.158Z,45.38
2017-09-03T16:28:52.031Z,45.83
2017-09-03T16:31:18.907Z,46.93
2017-09-03T16:33:45.826Z,46.97
2017-09-03T16:36:12.696Z,49.90
2017-09-03T16:38:39.613Z,49.46
2017-09-03T16:41:06.509Z,50.32
2017-09-03T16:43:33.388Z,49.59
2017-09-03T16:46:00.305Z,50.39
2017-09-03T16:48:27.207Z,50.01
2017-09-03T16:50:54.106Z,50.55
2017-09-03T16:53:21.034Z,50.34
2017-09-03T16:55:47.951Z,50.40
2017-09-03T16:58:14.862Z,50.91
2017-09-03T17:00:41.751Z,51.00
2017-09-03T17:03:08.638Z,51.74
2017-09-03T17:05:35.539Z,50.87
2017-09-03T17:08:02.451Z,49.93
2017-09-03T17:10:29.319Z,50.34
2017-09-03T17:12:56.237Z,50.33
2017-09-03T17:15:23.163Z,51.18
2017-09-03T17:17:50.047Z,51.64
2017-09-03T17:20:16.947Z,50.69
2017-09-03T17:22:44.623Z,51.78
2017-09-03T17:25:11.562Z,52.27
2017-09-03T17:27:38.690Z,51.50
2017-09-03T17:30:06.560Z,51.69
2017-09-03T17:32:33.453Z,50.91
2017-09-03T17:35:00.637Z,51.44
2017-09-03T17:37:33.968Z,51.91
2017-09-03T17:40:00.931Z,51.73
2017-09-03T17:42:28.747Z,52.64
2017-09-03T17:44:56.029Z,55.02
2017-09-03T17:47:22.995Z,55.46
2017-09-03T17:49:50.436Z,53.82
2017-09-03T17:52:18.425Z,53.76
2017-09-03T17:54:45.795Z,53.80
2017-09-03T17:57:13.132Z,54.64
2017-09-03T17:59:40.589Z,57.26
2017-09-03T18:02:07.704Z,58.23
2017-09-03T18:04:36.898Z,59.15
2017-09-03T18:07:03.809Z,60.37
2017-09-03T18:09:30.936Z,58.79
2017-09-03T18:11:57.822Z,57.38
2017-09-03T18:14:25.005Z,56.38
2017-09-03T18:16:51.903Z,56.89
2017-09-03T18:19:18.779Z,57.03
2017-09-03T18:21:46.079Z,57.55
2017-09-03T18:24:13.216Z,57.78
2017-09-03T18:26:40.745Z,58.92
2017-09-03T18:29:09.182Z,58.98
2017-09-03T18:31:36.892Z,58.99
2017-09-03T18:34:04.192Z,60.18
2017-09-03T18:39:33.145Z,60.93
2017-09-03T18:42:03.114Z,61.69
2017-09-03T18:44:30.806Z,63.18
2017-09-03T18:46:58.535Z,64.46
2017-09-03T18:49:27.797Z,68.32
2017-09-03T18:51:59.396Z,70.04
2017-09-03T18:54:28.115Z,69.36
2017-09-03T18:56:56.072Z,69.37
2017-09-03T18:59:24.439Z,70.04
2017-09-03T19:01:58.283Z,67.64
2017-09-03T19:04:40.657Z,70.91
2017-09-03T19:07:09.518Z,70.56
2017-09-03T19:09:37.879Z,67.65
2017-09-03T19:12:06.812Z,65.11
2017-09-03T19:14:35.505Z,65.07
2017-09-03T19:17:04.481Z,65.08
2017-09-03T19:19:33.318Z,71.04
2017-09-03T19:22:02.244Z,72.47
2017-09-03T19:24:30.610Z,73.71
2017-09-03T19:26:59.262Z,74.38
2017-09-03T19:29:27.366Z,71.73
2017-09-03T19:31:56.271Z,68.89
2017-09-03T19:34:25.075Z,67.57
2017-09-03T19:36:56.136Z,71.82
2017-09-03T19:39:23.986Z,74.67
2017-09-03T19:41:52.525Z,74.22
2017-09-03T19:44:20.669Z,75.95
2017-09-03T19:46:48.809Z,76.74
2017-09-03T19:49:17.347Z,76.97
2017-09-03T19:51:45.816Z,71.98
2017-09-03T19:54:14.265Z,76.79
2017-09-03T19:56:42.815Z,73.82
2017-09-03T19:59:10.323Z,73.62
2017-09-03T20:01:38.683Z,71.32
2017-09-03T20:04:05.640Z,72.05
2017-09-03T20:06:33.028Z,74.56
2017-09-03T20:09:01.757Z,70.89
2017-09-03T20:11:28.875Z,74.60
2017-09-03T20:13:56.890Z,74.33
2017-09-03T20:16:25.370Z,74.35
2017-09-03T20:18:52.678Z,73.05
2017-09-03T20:21:20.635Z,70.72
2017-09-03T20:23:48.459Z,70.07
2017-09-03T20:26:16.861Z,71.71
2017-09-03T20:28:44.424Z,71.65
2017-09-03T20:31:11.269Z,75.36
2017-09-03T20:33:38.097Z,75.31
2017-09-03T20:36:04.961Z,77.63
2017-09-03T20:38:31.793Z,76.53
2017-09-03T20:40:58.666Z,79.96
2017-09-03T20:43:25.500Z,79.93
2017-09-03T20:45:52.353Z,79.98
2017-09-03T20:48:19.259Z,79.52
2017-09-03T20:50:46.087Z,79.17
2017-09-03T20:53:12.923Z,74.88
2017-09-03T20:55:39.783Z,75.44
2017-09-03T20:58:06.610Z,76.11
2017-09-03T21:00:33.441Z,76.89
2017-09-03T21:03:00.306Z,75.03
2017-09-03T21:05:27.193Z,73.91
2017-09-03T21:07:54.311Z,78.05
2017-09-03T21:10:21.718Z,78.97
2017-09-03T21:12:48.695Z,75.36
2017-09-03T21:15:15.598Z,74.20
2017-09-03T21:17:43.097Z,76.11
2017-09-03T21:20:09.925Z,76.26
2017-09-03T21:22:36.723Z,72.74
2017-09-03T21:25:03.528Z,73.36
2017-09-03T21:27:30.463Z,71.83
2017-09-03T21:29:57.616Z,73.53
2017-09-03T21:32:24.628Z,76.87
2017-09-03T21:34:51.441Z,78.67
2017-09-03T21:37:18.691Z,78.00
2017-09-03T21:39:45.535Z,76.49
2017-09-03T21:42:12.977Z,77.31
2017-09-03T21:44:39.783Z,79.63
2017-09-03T21:47:11.350Z,75.00
2017-09-03T21:49:39.445Z,76.82
2017-09-03T21:52:06.500Z,74.08
2017-09-03T21:54:33.314Z,78.78
2017-09-03T21:57:04.095Z,75.08
2017-09-03T21:59:31.830Z,76.58
2017-09-03T22:02:03.260Z,78.05
2017-09-03T22:04:30.922Z,77.56
2017-09-03T22:07:02.027Z,78.48
2017-09-03T22:09:29.551Z,75.33
2017-09-03T22:11:56.447Z,77.16
2017-09-03T22:14:23.336Z,78.16
2017-09-03T22:16:50.182Z,81.36
2017-09-03T22:19:17.031Z,82.55
2017-09-03T22:21:43.881Z,82.47
2017-09-03T22:24:10.723Z,82.56
2017-09-03T22:26:37.580Z,84.21
2017-09-03T22:29:04.426Z,82.47
2017-09-03T22:31:31.267Z,82.37
2017-09-03T22:33:58.142Z,77.27
2017-09-03T22:36:24.965Z,75.52
2017-09-03T22:38:51.780Z,74.39
2017-09-03T22:41:18.609Z,74.15
2017-09-03T22:43:45.457Z,79.68
2017-09-03T22:46:12.299Z,81.35
2017-09-03T22:48:39.129Z,82.34
2017-09-03T22:51:05.967Z,82.34
2017-09-03T22:53:32.794Z,81.78
2017-09-03T22:55:59.601Z,83.00
2017-09-03T22:58:26.432Z,81.55
2017-09-03T23:00:53.271Z,80.71
2017-09-03T23:03:20.111Z,79.20
2017-09-03T23:05:46.939Z,77.87
2017-09-03T23:08:13.826Z,76.86
2017-09-03T23:10:40.703Z,76.05
2017-09-03T23:13:07.560Z,79.08
2017-09-03T23:15:34.396Z,78.14
2017-09-03T23:18:01.223Z,79.33
2017-09-03T23:20:28.074Z,81.30
2017-09-03T23:22:54.895Z,80.96
2017-09-03T23:25:21.751Z,80.70
2017-09-03T23:27:48.643Z,77.90
2017-09-03T23:30:15.462Z,79.32
2017-09-03T23:32:42.298Z,79.60
2017-09-03T23:35:09.138Z,78.69
2017-09-03T23:37:35.971Z,79.32
2017-09-03T23:40:02.861Z,82.86
2017-09-03T23:42:29.725Z,81.71
2017-09-03T23:44:56.563Z,82.43
2017-09-03T23:47:23.388Z,83.01
2017-09-03T23:49:50.245Z,82.35
2017-09-03T23:52:17.120Z,80.71
2017-09-03T23:54:43.928Z,79.70
2017-09-03T23:57:10.816Z,79.82
2017-09-03T23:59:37.652Z,80.75
